首页
METAR-TAF:

METAR-TAF

机场 :

Glencoe Municipal Airport (Vernon Perschau Field)

Glencoe, 明尼蘇達州, 美国

纬度: 44-45-22N, 经度: 094-04-52W, 海拔: 302米

当前天气观测

该预报发布于8分钟前的09:38 UTC
静风
温度 -4°C
湿度 100%
气压 1024 hPa
能見度: 11.3公里
天空无云

METAR: KGYL 150938Z AUTO 00000KT 7SM CLR M04/M04 A3024 RMK AO2 T10401040

时间: 03:46 (09:46 UTC)


TAF: 丢失

超过4000个机场的气象观测和天气预报(METAR&TAF报告)。

可查询的气象台以黄色和红色小点在地图上表示。

将鼠标移到小点上方,可查看气象台名称。

然后点击查看天气观测和预报。

如需切换地图:点击带黑十字的绿色按钮放大地图;点击带横线的绿色按钮缩小地图;或者点击绿色箭头查看邻近地区的地图。


METAR-TAF: